Tarrant West's Hourly Summary for Saturday, July 7, 2018
Hour Temp
(f)
RH
(%)
Solar Rad.
(MJ/m2)
Rainfall
(in)
Wind
(mph)
7/7/2018 12:00 AM 76 81 0 0 3.99
7/7/2018 1:00 AM 75 83 0 0 4.02
7/7/2018 2:00 AM 75 82 0 0 4.49
7/7/2018 3:00 AM 74 83 0 0 4.56
7/7/2018 4:00 AM 74 84 0 0 4.74
7/7/2018 5:00 AM 73 88 0 0 4.78
7/7/2018 6:00 AM 72 90 0.01 0 5.08
7/7/2018 7:00 AM 73 89 0.26 0 4.74
7/7/2018 8:00 AM 76 80 0.97 0 6.84
7/7/2018 9:00 AM 79 71 1.66 0 6.17
7/7/2018 10:00 AM 82 63 2.18 0 5.23
7/7/2018 11:00 AM 84 56 2.71 0 5.9
7/7/2018 12:00 PM 87 53 3.1 0 6.19
7/7/2018 1:00 PM 89 48 3.46 0 7.51
7/7/2018 2:00 PM 91 44 3.09 0 8.18
7/7/2018 3:00 PM 92 39 2.15 0 8.79
7/7/2018 4:00 PM 93 37 2.5 0 8.83
7/7/2018 5:00 PM 93 35 1.87 0 8.52
7/7/2018 6:00 PM 92 36 1.28 0 10.15
7/7/2018 7:00 PM 91 36 0.68 0 10.32
7/7/2018 8:00 PM 89 40 0.12 0 10.93
7/7/2018 9:00 PM 87 45 0 0 9.72
7/7/2018 10:00 PM 86 46 0 0 7.8
7/7/2018 11:00 PM 85 49 0 0 6.87
Data Summary 82 60 26.04 0.00 6.85